This is the latest recevied weather packets stored in our database for station/object AA5AW. If no packets are shown the sender has not sent any weather packets the latest 10 day(s).
| Time | Temp. | Humidity | Pressure | Rain* | Wind** | Luminosity | Snow |
|---|---|---|---|---|---|---|---|
| 1777559447 | 17.78° C | 97% | 1013.2 hPa | 0.25 mm | - | 47 W/m² | - |
| 1777555810 | 17.78° C | 97% | 1012.9 hPa | 0 mm | - | 39 W/m² | - |
| 1777554961 | 17.78° C | 97% | 1012.9 hPa | 0 mm | - | 26 W/m² | - |
| 1777552248 | 18.33° C | 97% | 1012.8 hPa | 0.51 mm | - | 11 W/m² | - |
| 1777550406 | 18.89° C | 97% | 1012.3 hPa | 0.25 mm | - | 5 W/m² | - |
| 1777549542 | 18.89° C | 97% | 1012.3 hPa | 0.25 mm | - | 0 W/m² | - |
| 1777548606 | 18.89° C | 96% | 1012.3 hPa | 0 mm | - | 0 W/m² | - |
| 1777541415 | 18.89° C | 96% | 1012.2 hPa | 0 mm | - | 0 W/m² | - |
| 1777537858 | 18.89° C | 96% | 1012.1 hPa | 0 mm | - | 0 W/m² | - |
| 1777534229 | 18.89° C | 96% | 1012.7 hPa | 0 mm | - | 0 W/m² | - |
| 1777529749 | 18.89° C | 96% | 1013.2 hPa | 0 mm | - | 0 W/m² | - |
| 1777514423 | 21.11° C | 87% | 1011.9 hPa | 0 mm | - | 0 W/m² | - |
| 1777504522 | 27.22° C | 81% | 1010.5 hPa | 0 mm | - | 100 W/m² | - |
| 1777497340 | 26.67° C | 83% | 1011.2 hPa | 0 mm | - | 211 W/m² | - |
| 1777491920 | 27.22° C | 79% | 1011.5 hPa | 0 mm | - | 582 W/m² | - |
| 1777489272 | 26.11° C | 85% | 1012.6 hPa | 0 mm | - | 236 W/m² | - |
| 1777489213 | 26.11° C | 85% | 1012.7 hPa | 0 mm | - | 230 W/m² | - |
| 1777481144 | 24.44° C | 91% | 1014.5 hPa | 0 mm | - | 185 W/m² | - |
| 1777477535 | 23.89° C | 93% | 1014.5 hPa | 0 mm | - | 86 W/m² | - |
| 1777474832 | 23.89° C | 92% | 1014 hPa | 0 mm | - | 54 W/m² | - |
| 1777473919 | 23.89° C | 92% | 1014 hPa | 0 mm | - | 47 W/m² | - |
| 1777469418 | 23.89° C | 92% | 1013.4 hPa | 0 mm | - | 46 W/m² | - |
| 1777464942 | 23.33° C | 94% | 1013.3 hPa | 0 mm | - | 18 W/m² | - |
| 1777463150 | 23.33° C | 94% | 1013 hPa | 0 mm | - | 0 W/m² | - |
| 1777462223 | 23.33° C | 94% | 1013 hPa | 0 mm | - | 0 W/m² | - |
* Rain latest hour (hover to see other rain measurements)
** Current wind speed in m/s (hover to see current wind gust speed)